Terminal Aerodrome Forecast
Issued by NWS

Home | Current Version | Previous Version | Text Only | Print | Product List | Glossary On
Versions: 1 2 3 4 5 6 7 8 9 10 11 12 13 14 15 16
000
FTUS44 KSJT 281259 AAB
TAFJCT
TAF AMD
KJCT 281259Z 2813/2912 VRB05KT 5SM BR OVC012
     FM281400 16010KT P6SM BKN015
     FM281800 16010KT P6SM SCT040
     FM282200 14011KT P6SM VCTS BKN040CB
     FM290300 13011KT P6SM BKN100
     FM290600 13005KT P6SM BKN015=

USA.gov is the U.S. government's official web portal to all federal, state and local government web resources and services.